createdAt,value
2023-05-05T00:00:01.466Z,45.3
2023-05-05T00:05:01.505Z,44.5
2023-05-05T00:10:01.617Z,43.8
2023-05-05T00:25:06.639Z,42.3
2023-05-05T00:30:01.600Z,43.4
2023-05-05T00:35:01.783Z,46.7
2023-05-05T00:40:07.467Z,49.9
2023-05-05T00:50:01.526Z,56.6
2023-05-05T00:55:01.683Z,55.6
2023-05-05T01:00:02.553Z,54.6
2023-05-05T01:05:01.679Z,56.0
2023-05-05T01:25:01.545Z,72.4
2023-05-05T01:45:01.994Z,64.8
2023-05-05T01:50:02.919Z,71.5
2023-05-05T02:00:01.757Z,78.8
2023-05-05T02:05:02.017Z,74.2
2023-05-05T02:10:06.932Z,74.6
2023-05-05T02:20:01.811Z,74.0
2023-05-05T02:25:01.929Z,75.1
2023-05-05T02:30:01.882Z,81.3
2023-05-05T02:35:01.750Z,87.0
2023-05-05T02:40:02.716Z,89.0
2023-05-05T02:50:07.081Z,87.6
2023-05-05T02:55:02.754Z,86.0
2023-05-05T03:00:02.807Z,87.4
2023-05-05T03:05:01.777Z,93.8
2023-05-05T03:10:02.817Z,98.0
2023-05-05T03:15:01.800Z,103.3
2023-05-05T03:20:04.274Z,113.9
2023-05-05T03:25:01.833Z,115.8
2023-05-05T03:30:07.271Z,110.3
2023-05-05T03:35:06.870Z,106.6
2023-05-05T03:40:06.974Z,102.8
2023-05-05T03:45:01.789Z,100.7
2023-05-05T03:50:07.381Z,95.4
2023-05-05T03:55:01.844Z,92.3
2023-05-05T04:00:01.713Z,89.0
2023-05-05T04:05:01.808Z,83.0
2023-05-05T04:15:01.747Z,78.6
2023-05-05T04:20:01.569Z,83.8
2023-05-05T04:25:02.708Z,92.2
2023-05-05T04:30:01.717Z,99.7
2023-05-05T04:35:01.810Z,97.6
2023-05-05T04:50:01.682Z,105.5
2023-05-05T04:55:01.713Z,92.8
2023-05-05T05:05:01.825Z,86.7
2023-05-05T05:10:01.701Z,81.3
2023-05-05T05:20:01.894Z,83.8
2023-05-05T05:25:01.789Z,82.2
2023-05-05T05:35:06.767Z,74.4
2023-05-05T05:40:01.572Z,76.2
2023-05-05T05:45:02.147Z,81.7
2023-05-05T05:50:01.709Z,84.4
2023-05-05T05:55:01.677Z,88.3
2023-05-05T06:00:02.807Z,91.4
2023-05-05T06:05:01.837Z,88.2
2023-05-05T06:10:27.760Z,83.3
2023-05-05T06:15:02.727Z,80.6
2023-05-05T06:20:01.627Z,79.6
2023-05-05T06:25:01.693Z,74.4
2023-05-05T06:30:01.816Z,78.4
2023-05-05T06:35:01.683Z,77.3
2023-05-05T06:40:07.955Z,81.4
2023-05-05T06:45:02.198Z,89.0
2023-05-05T06:50:07.547Z,90.0
2023-05-05T06:55:01.651Z,93.5
2023-05-05T07:00:01.600Z,101.8
2023-05-05T07:05:01.911Z,110.4
2023-05-05T07:10:02.927Z,110.0
2023-05-05T07:15:28.993Z,116.7
2023-05-05T07:20:01.571Z,117.3
2023-05-05T07:25:06.833Z,119.0
2023-05-05T07:30:15.488Z,117.8
2023-05-05T07:35:01.673Z,109.6
2023-05-05T07:40:01.700Z,109.6
2023-05-05T07:50:02.295Z,106.3
2023-05-05T07:55:01.710Z,103.8
2023-05-05T08:00:02.572Z,112.1
2023-05-05T08:05:07.579Z,110.3
2023-05-05T08:10:06.572Z,105.1
2023-05-05T08:20:01.717Z,107.2
2023-05-05T08:25:01.953Z,104.1
2023-05-05T08:35:01.699Z,99.9
2023-05-05T09:05:12.499Z,96.2
2023-05-05T09:25:02.000Z,79.5
2023-05-05T09:35:01.814Z,74.9
2023-05-05T09:40:01.558Z,77.0
2023-05-05T10:10:01.776Z,71.3
2023-05-05T10:20:01.738Z,65.9
2023-05-05T10:25:02.162Z,67.6
2023-05-05T10:35:01.819Z,70.2
2023-05-05T10:50:01.775Z,71.7
2023-05-05T10:55:01.729Z,69.2
2023-05-05T11:00:01.756Z,65.2
2023-05-05T11:05:02.058Z,61.2
2023-05-05T11:10:02.195Z,63.1
2023-05-05T11:15:01.779Z,63.5
2023-05-05T11:35:02.145Z,63.8
2023-05-05T11:40:01.657Z,58.3
2023-05-05T12:05:02.408Z,49.0
2023-05-05T12:15:02.122Z,54.1
2023-05-05T12:20:01.974Z,51.6
2023-05-05T12:50:07.125Z,91.1
2023-05-05T13:00:02.158Z,70.1
2023-05-05T13:10:07.117Z,53.0
2023-05-05T13:20:01.952Z,83.8
2023-05-05T13:40:01.877Z,92.1
2023-05-05T13:50:02.021Z,80.7
2023-05-05T14:00:02.104Z,80.5
2023-05-05T14:05:02.334Z,87.8
2023-05-05T14:15:02.021Z,118.6
2023-05-05T14:20:01.910Z,125.1
2023-05-05T14:25:03.373Z,128.6
2023-05-05T14:35:01.986Z,138.6
2023-05-05T14:40:07.089Z,134.7
2023-05-05T14:55:03.003Z,140.0
2023-05-05T15:00:01.938Z,133.8
2023-05-05T15:05:02.216Z,142.2
2023-05-05T15:10:02.965Z,128.9
2023-05-05T15:15:01.998Z,115.4
2023-05-05T15:25:02.246Z,124.8
2023-05-05T15:30:02.044Z,117.3
2023-05-05T15:35:01.861Z,103.4
2023-05-05T15:40:02.202Z,109.7
2023-05-05T15:50:02.031Z,105.4
2023-05-05T15:55:02.068Z,106.1
2023-05-05T16:00:02.188Z,122.7
2023-05-05T16:05:02.166Z,122.2
2023-05-05T16:10:03.012Z,121.6
2023-05-05T16:15:01.905Z,116.6
2023-05-05T16:35:02.042Z,96.9
2023-05-05T16:55:02.106Z,114.2
2023-05-05T17:05:01.945Z,113.3
2023-05-05T17:10:01.858Z,110.4
2023-05-05T17:15:07.794Z,110.4
2023-05-05T17:20:06.821Z,113.0
2023-05-05T17:25:07.358Z,112.1
2023-05-05T17:30:01.850Z,114.1
2023-05-05T17:35:02.084Z,110.5
2023-05-05T17:45:02.348Z,100.5
2023-05-05T17:50:06.906Z,97.8
2023-05-05T17:55:01.880Z,92.8
2023-05-05T18:00:02.165Z,91.9
2023-05-05T18:05:02.250Z,100.7
2023-05-05T18:10:01.934Z,92.4
2023-05-05T18:15:04.139Z,84.8
2023-05-05T18:25:02.087Z,78.1
2023-05-05T18:35:01.856Z,74.9
2023-05-05T18:40:01.841Z,81.6
2023-05-05T18:45:02.011Z,82.6
2023-05-05T19:25:02.186Z,118.8
2023-05-05T19:30:01.732Z,105.6
2023-05-05T19:35:01.923Z,94.4
2023-05-05T19:40:01.755Z,92.1
2023-05-05T19:50:01.777Z,78.6
2023-05-05T20:05:01.902Z,101.2
2023-05-05T20:10:02.913Z,111.2
2023-05-05T20:20:01.698Z,117.2
2023-05-05T20:25:07.099Z,125.4
2023-05-05T20:35:02.870Z,128.0
2023-05-05T20:40:07.011Z,119.8
2023-05-05T20:50:02.037Z,123.3
2023-05-05T21:00:01.706Z,98.1
2023-05-05T21:05:02.178Z,95.2
2023-05-05T21:10:01.643Z,75.0
2023-05-05T21:15:01.800Z,54.8
2023-05-05T21:20:01.654Z,58.6
2023-05-05T21:25:02.219Z,45.3
2023-05-05T21:30:02.729Z,46.4
2023-05-05T21:35:05.100Z,49.5
2023-05-05T21:40:01.775Z,51.3
2023-05-05T21:50:02.853Z,60.7
2023-05-05T21:55:01.786Z,62.2
2023-05-05T22:00:01.827Z,64.4
2023-05-05T22:05:03.023Z,63.4
2023-05-05T22:10:02.029Z,59.1
2023-05-05T22:20:08.137Z,49.3
2023-05-05T22:25:02.743Z,53.3
2023-05-05T22:40:07.011Z,78.4
2023-05-05T22:45:02.211Z,93.1
2023-05-05T22:50:02.841Z,98.5
2023-05-05T22:55:02.080Z,95.8
2023-05-05T23:05:01.784Z,102.1
2023-05-05T23:10:01.946Z,98.3
2023-05-05T23:20:01.684Z,94.0
2023-05-05T23:25:01.881Z,95.5
2023-05-05T23:35:01.716Z,90.8
2023-05-05T23:40:06.624Z,85.1
2023-05-05T23:45:06.691Z,83.8
2023-05-05T23:50:01.648Z,84.0
2023-05-05T23:55:01.748Z,81.5
